UAUU

Kostanay West Airport

Kostanay, Kazakhstan
TAF UAUU 151100Z 1512/1521 30009MPS 9999 BKN010CB TEMPO 1512/1518 29013MPS 3000 TSRA BKN010CB
Issued Valid From Valid To
Aug-15 @ 11:00 UTC
(2 hours ago)
Aug-15 @ 12:00 UTC
(42 minutes ago)
Aug-15 @ 21:00 UTC
(in 8 hours)
Aug-15 @ 12:00 to Aug-15 @ 21:00
TAF UAUU 151100Z 1512/1521 30009MPS 9999 BKN010CB
Wind Visibility Clouds
300° at 17 knots 10,000+ meters
  • Broken at 1,000' AGL
Temporary Aug-15 @ 12:00 to Aug-15 @ 18:00
TEMPO 1512/1518 29013MPS 3000 TSRA BKN010CB
Wind Visibility Clouds Conditions
290° at 25 knots 2,993 meters
  • Broken at 1,000' AGL
  • Thunderstorm
  • Rain
TAF UAUU 151100Z 1512/1521 30009MPS 9999 BKN010CB TEMPO 1512/1518 29013MPS 3000 TSRA BKN010CB
Issued Aug-15 @ 11:00 UTC
(2 hours ago)
Valid From Aug-15 @ 12:00 UTC
(42 minutes ago)
Valid To Aug-15 @ 21:00 UTC
(in 8 hours)
Aug-15 @ 12:00 - Aug-15 @ 21:00
Wind Visibility
300° at 17 knots 10,000+ meters
Clouds
  • Broken at 1,000' AGL
Temporary Aug-15 @ 12:00 - Aug-15 @ 18:00
Wind Visibility
290° at 25 knots 2,993 meters
Clouds
  • Broken at 1,000' AGL
Conditions
  • Thunderstorm
  • Rain